This is the latest recevied weather packets stored in our database for station/object AE6EO. If no packets are shown the sender has not sent any weather packets the latest 10 day(s).
| Time | Temp. | Humidity | Pressure | Rain* | Wind** | Luminosity | Snow |
|---|---|---|---|---|---|---|---|
| 1778058335 | 14.44° C | 81% | 1019.7 hPa | 0 mm | - | - | - |
| 1778057116 | 14.44° C | 81% | 1019.8 hPa | 0 mm | - | - | - |
| 1778056515 | 14.44° C | 80% | 1019.8 hPa | 0 mm | - | - | - |
| 1778055937 | 14.44° C | 80% | 1019.8 hPa | 0 mm | - | - | - |
| 1778052916 | 14.44° C | 80% | 1019.6 hPa | 0 mm | - | - | - |
| 1778052315 | 14.44° C | 79% | 1019.6 hPa | 0 mm | - | - | - |
| 1778051116 | 14.44° C | 79% | 1019.4 hPa | 0 mm | - | - | - |
| 1778046915 | 15° C | 75% | 1018.9 hPa | 0 mm | - | - | - |
| 1778046315 | 15° C | 75% | 1018.9 hPa | 0 mm | - | - | - |
| 1778040915 | 15° C | 75% | 1018.1 hPa | 0 mm | - | - | - |
| 1778037917 | 15.56° C | 72% | 1017.4 hPa | 0 mm | - | - | - |
| 1778036115 | 15.56° C | 71% | 1017.1 hPa | 0 mm | - | - | - |
| 1778035536 | 15.56° C | 71% | 1017 hPa | 0 mm | - | - | - |
| 1778031316 | 16.11° C | 70% | 1016.9 hPa | 0 mm | - | - | - |
| 1778030715 | 16.11° C | 70% | 1016.8 hPa | 0 mm | - | - | - |
| 1778028915 | 16.67° C | 70% | 1016.7 hPa | 0 mm | - | - | - |
| 1778022915 | 17.78° C | 66% | 1016.4 hPa | 0 mm | - | - | - |
| 1778018117 | 17.22° C | 65% | 1016.7 hPa | 0 mm | - | - | - |
| 1778016915 | 17.22° C | 67% | 1016.8 hPa | 0 mm | - | - | - |
| 1778013957 | 17.22° C | 65% | 1016.8 hPa | 0 mm | - | - | - |
| 1778006720 | 15.56° C | 74% | 1017.1 hPa | 0 mm | - | - | - |
| 1778004317 | 15° C | 77% | 1017 hPa | 0 mm | - | - | - |
| 1778000116 | 14.44° C | 74% | 1016.6 hPa | 0 mm | - | - | - |
| 1777999536 | 14.44° C | 75% | 1016.6 hPa | 0 mm | - | - | - |
| 1777995315 | 13.33° C | 79% | 1016.3 hPa | 0 mm | - | - | - |
* Rain latest hour (hover to see other rain measurements)
** Current wind speed in m/s (hover to see current wind gust speed)